sensor_id;sensor_type;location;lat;lon;timestamp;P1;durP1;ratioP1;P2;durP2;ratioP2
9034;SDS011;4552;43.422;24.592;2022-11-23T00:01:27;2.37;;;2.00;;
9034;SDS011;4552;43.422;24.592;2022-11-23T00:03:57;2.60;;;2.40;;
9034;SDS011;4552;43.422;24.592;2022-11-23T00:06:26;4.87;;;2.17;;
9034;SDS011;4552;43.422;24.592;2022-11-23T00:08:54;2.60;;;2.13;;
9034;SDS011;4552;43.422;24.592;2022-11-23T00:11:22;3.00;;;2.40;;
9034;SDS011;4552;43.422;24.592;2022-11-23T00:13:51;2.13;;;1.90;;
9034;SDS011;4552;43.422;24.592;2022-11-23T00:16:20;2.57;;;2.27;;
9034;SDS011;4552;43.422;24.592;2022-11-23T00:18:50;4.23;;;2.70;;
9034;SDS011;4552;43.422;24.592;2022-11-23T00:21:18;4.63;;;2.80;;
9034;SDS011;4552;43.422;24.592;2022-11-23T00:23:46;5.40;;;3.00;;
9034;SDS011;4552;43.422;24.592;2022-11-23T00:26:15;3.27;;;2.97;;
9034;SDS011;4552;43.422;24.592;2022-11-23T00:28:42;4.93;;;3.07;;
9034;SDS011;4552;43.422;24.592;2022-11-23T00:31:10;5.40;;;2.67;;
9034;SDS011;4552;43.422;24.592;2022-11-23T00:33:39;4.33;;;2.70;;
9034;SDS011;4552;43.422;24.592;2022-11-23T00:36:10;3.27;;;2.60;;
9034;SDS011;4552;43.422;24.592;2022-11-23T00:38:38;3.20;;;2.90;;
9034;SDS011;4552;43.422;24.592;2022-11-23T00:41:07;4.27;;;2.97;;
9034;SDS011;4552;43.422;24.592;2022-11-23T00:43:39;4.43;;;3.17;;
9034;SDS011;4552;43.422;24.592;2022-11-23T00:46:07;3.73;;;3.20;;
9034;SDS011;4552;43.422;24.592;2022-11-23T00:48:36;3.47;;;2.93;;
9034;SDS011;4552;43.422;24.592;2022-11-23T00:51:04;3.57;;;3.00;;
9034;SDS011;4552;43.422;24.592;2022-11-23T00:53:33;3.33;;;2.70;;
9034;SDS011;4552;43.422;24.592;2022-11-23T00:56:00;4.13;;;3.23;;
9034;SDS011;4552;43.422;24.592;2022-11-23T00:58:27;4.73;;;3.33;;
9034;SDS011;4552;43.422;24.592;2022-11-23T01:01:03;3.47;;;3.17;;
9034;SDS011;4552;43.422;24.592;2022-11-23T01:03:31;3.83;;;3.23;;
9034;SDS011;4552;43.422;24.592;2022-11-23T01:06:02;3.97;;;3.33;;
9034;SDS011;4552;43.422;24.592;2022-11-23T01:08:31;5.90;;;3.57;;
9034;SDS011;4552;43.422;24.592;2022-11-23T01:11:00;4.80;;;3.63;;
9034;SDS011;4552;43.422;24.592;2022-11-23T01:13:27;4.37;;;3.20;;
9034;SDS011;4552;43.422;24.592;2022-11-23T01:15:55;4.10;;;3.17;;
9034;SDS011;4552;43.422;24.592;2022-11-23T01:18:23;4.37;;;3.23;;
9034;SDS011;4552;43.422;24.592;2022-11-23T01:20:51;4.57;;;3.37;;
9034;SDS011;4552;43.422;24.592;2022-11-23T01:23:19;3.70;;;2.90;;
9034;SDS011;4552;43.422;24.592;2022-11-23T01:25:46;5.03;;;3.33;;
9034;SDS011;4552;43.422;24.592;2022-11-23T01:28:13;4.20;;;3.53;;
9034;SDS011;4552;43.422;24.592;2022-11-23T01:30:40;3.57;;;2.90;;
9034;SDS011;4552;43.422;24.592;2022-11-23T01:33:08;4.80;;;3.37;;
9034;SDS011;4552;43.422;24.592;2022-11-23T01:35:36;4.10;;;3.40;;
9034;SDS011;4552;43.422;24.592;2022-11-23T01:38:03;3.53;;;2.90;;
9034;SDS011;4552;43.422;24.592;2022-11-23T01:40:30;4.70;;;3.27;;
9034;SDS011;4552;43.422;24.592;2022-11-23T01:43:05;3.80;;;3.03;;
9034;SDS011;4552;43.422;24.592;2022-11-23T01:45:39;4.80;;;2.93;;
9034;SDS011;4552;43.422;24.592;2022-11-23T01:48:09;4.93;;;3.20;;
9034;SDS011;4552;43.422;24.592;2022-11-23T01:50:42;4.37;;;3.03;;
9034;SDS011;4552;43.422;24.592;2022-11-23T01:53:12;3.23;;;2.90;;
9034;SDS011;4552;43.422;24.592;2022-11-23T01:55:39;5.22;;;3.95;;
9034;SDS011;4552;43.422;24.592;2022-11-23T01:58:08;3.70;;;3.07;;
9034;SDS011;4552;43.422;24.592;2022-11-23T02:00:38;4.37;;;3.13;;
9034;SDS011;4552;43.422;24.592;2022-11-23T02:03:05;4.23;;;3.50;;
9034;SDS011;4552;43.422;24.592;2022-11-23T02:05:36;4.13;;;3.50;;
9034;SDS011;4552;43.422;24.592;2022-11-23T02:08:10;5.00;;;3.53;;
9034;SDS011;4552;43.422;24.592;2022-11-23T02:10:39;5.10;;;3.60;;
9034;SDS011;4552;43.422;24.592;2022-11-23T02:13:09;6.20;;;3.57;;
9034;SDS011;4552;43.422;24.592;2022-11-23T02:15:38;4.17;;;3.50;;
9034;SDS011;4552;43.422;24.592;2022-11-23T02:18:08;5.70;;;4.10;;
9034;SDS011;4552;43.422;24.592;2022-11-23T02:20:40;5.33;;;3.83;;
9034;SDS011;4552;43.422;24.592;2022-11-23T02:23:14;4.43;;;3.90;;
9034;SDS011;4552;43.422;24.592;2022-11-23T02:25:57;4.77;;;3.93;;
9034;SDS011;4552;43.422;24.592;2022-11-23T02:28:28;6.30;;;4.30;;
9034;SDS011;4552;43.422;24.592;2022-11-23T02:31:00;5.67;;;3.80;;
9034;SDS011;4552;43.422;24.592;2022-11-23T02:33:31;9.50;;;3.80;;
9034;SDS011;4552;43.422;24.592;2022-11-23T02:35:59;4.97;;;3.57;;
9034;SDS011;4552;43.422;24.592;2022-11-23T02:38:29;5.67;;;3.20;;
9034;SDS011;4552;43.422;24.592;2022-11-23T02:41:00;4.57;;;3.40;;
9034;SDS011;4552;43.422;24.592;2022-11-23T02:43:27;4.70;;;3.63;;
9034;SDS011;4552;43.422;24.592;2022-11-23T02:45:54;5.07;;;3.20;;
9034;SDS011;4552;43.422;24.592;2022-11-23T02:48:23;4.30;;;3.53;;
9034;SDS011;4552;43.422;24.592;2022-11-23T02:50:50;4.90;;;3.63;;
9034;SDS011;4552;43.422;24.592;2022-11-23T02:53:18;4.97;;;3.73;;
9034;SDS011;4552;43.422;24.592;2022-11-23T02:55:45;4.87;;;3.50;;
9034;SDS011;4552;43.422;24.592;2022-11-23T02:58:14;4.50;;;3.73;;
9034;SDS011;4552;43.422;24.592;2022-11-23T03:00:41;5.60;;;3.93;;
9034;SDS011;4552;43.422;24.592;2022-11-23T03:03:08;7.47;;;3.73;;
9034;SDS011;4552;43.422;24.592;2022-11-23T03:05:35;5.00;;;3.60;;
9034;SDS011;4552;43.422;24.592;2022-11-23T03:08:02;5.90;;;3.70;;
9034;SDS011;4552;43.422;24.592;2022-11-23T03:10:29;5.30;;;3.23;;
9034;SDS011;4552;43.422;24.592;2022-11-23T03:12:56;5.67;;;3.40;;
9034;SDS011;4552;43.422;24.592;2022-11-23T03:15:25;4.70;;;3.73;;
9034;SDS011;4552;43.422;24.592;2022-11-23T03:17:52;4.83;;;3.83;;
9034;SDS011;4552;43.422;24.592;2022-11-23T03:20:20;5.27;;;3.40;;
9034;SDS011;4552;43.422;24.592;2022-11-23T03:22:47;4.77;;;3.40;;
9034;SDS011;4552;43.422;24.592;2022-11-23T03:25:14;4.57;;;3.50;;
9034;SDS011;4552;43.422;24.592;2022-11-23T03:27:41;4.03;;;3.30;;
9034;SDS011;4552;43.422;24.592;2022-11-23T03:30:09;4.90;;;3.33;;
9034;SDS011;4552;43.422;24.592;2022-11-23T03:32:38;4.83;;;3.90;;
9034;SDS011;4552;43.422;24.592;2022-11-23T03:35:07;4.27;;;3.63;;
9034;SDS011;4552;43.422;24.592;2022-11-23T03:37:34;3.97;;;3.33;;
9034;SDS011;4552;43.422;24.592;2022-11-23T03:40:01;4.70;;;3.37;;
9034;SDS011;4552;43.422;24.592;2022-11-23T03:42:29;4.17;;;3.33;;
9034;SDS011;4552;43.422;24.592;2022-11-23T03:44:56;4.97;;;3.80;;
9034;SDS011;4552;43.422;24.592;2022-11-23T03:47:23;5.60;;;3.60;;
9034;SDS011;4552;43.422;24.592;2022-11-23T03:49:51;5.50;;;3.87;;
9034;SDS011;4552;43.422;24.592;2022-11-23T03:52:18;4.47;;;3.50;;
9034;SDS011;4552;43.422;24.592;2022-11-23T03:54:45;6.10;;;3.93;;
9034;SDS011;4552;43.422;24.592;2022-11-23T03:57:12;4.10;;;3.37;;
9034;SDS011;4552;43.422;24.592;2022-11-23T03:59:39;5.30;;;4.17;;
9034;SDS011;4552;43.422;24.592;2022-11-23T04:02:06;7.20;;;3.53;;
9034;SDS011;4552;43.422;24.592;2022-11-23T04:04:35;5.93;;;4.00;;
9034;SDS011;4552;43.422;24.592;2022-11-23T04:07:04;5.70;;;4.20;;
9034;SDS011;4552;43.422;24.592;2022-11-23T04:09:31;7.07;;;4.27;;
9034;SDS011;4552;43.422;24.592;2022-11-23T04:11:58;5.10;;;4.27;;
9034;SDS011;4552;43.422;24.592;2022-11-23T04:14:26;5.10;;;4.20;;
9034;SDS011;4552;43.422;24.592;2022-11-23T04:16:53;5.77;;;4.33;;
9034;SDS011;4552;43.422;24.592;2022-11-23T04:19:20;7.43;;;4.70;;
9034;SDS011;4552;43.422;24.592;2022-11-23T04:21:49;7.03;;;4.70;;
9034;SDS011;4552;43.422;24.592;2022-11-23T04:24:18;7.67;;;4.93;;
9034;SDS011;4552;43.422;24.592;2022-11-23T04:26:45;5.43;;;4.40;;
9034;SDS011;4552;43.422;24.592;2022-11-23T04:29:12;5.43;;;3.80;;
9034;SDS011;4552;43.422;24.592;2022-11-23T04:31:39;5.40;;;4.17;;
9034;SDS011;4552;43.422;24.592;2022-11-23T04:34:06;6.10;;;4.30;;
9034;SDS011;4552;43.422;24.592;2022-11-23T04:36:34;6.83;;;4.60;;
9034;SDS011;4552;43.422;24.592;2022-11-23T04:39:01;6.43;;;4.17;;
9034;SDS011;4552;43.422;24.592;2022-11-23T04:41:30;6.37;;;4.10;;
9034;SDS011;4552;43.422;24.592;2022-11-23T04:43:58;5.27;;;3.90;;
9034;SDS011;4552;43.422;24.592;2022-11-23T04:46:25;5.77;;;3.93;;
9034;SDS011;4552;43.422;24.592;2022-11-23T04:48:52;6.77;;;4.10;;
9034;SDS011;4552;43.422;24.592;2022-11-23T04:51:20;6.13;;;4.23;;
9034;SDS011;4552;43.422;24.592;2022-11-23T04:53:47;6.87;;;4.77;;
9034;SDS011;4552;43.422;24.592;2022-11-23T04:56:14;5.63;;;4.30;;
9034;SDS011;4552;43.422;24.592;2022-11-23T04:58:43;6.37;;;4.60;;
9034;SDS011;4552;43.422;24.592;2022-11-23T05:01:10;7.73;;;5.13;;
9034;SDS011;4552;43.422;24.592;2022-11-23T05:03:38;7.00;;;4.43;;
9034;SDS011;4552;43.422;24.592;2022-11-23T05:06:05;11.17;;;5.13;;
9034;SDS011;4552;43.422;24.592;2022-11-23T05:08:33;5.07;;;4.23;;
9034;SDS011;4552;43.422;24.592;2022-11-23T05:11:00;10.97;;;4.73;;
9034;SDS011;4552;43.422;24.592;2022-11-23T05:13:27;5.90;;;4.43;;
9034;SDS011;4552;43.422;24.592;2022-11-23T05:15:56;6.37;;;4.43;;
9034;SDS011;4552;43.422;24.592;2022-11-23T05:18:23;6.17;;;4.50;;
9034;SDS011;4552;43.422;24.592;2022-11-23T05:20:50;4.77;;;3.83;;
9034;SDS011;4552;43.422;24.592;2022-11-23T05:23:17;6.63;;;4.50;;
9034;SDS011;4552;43.422;24.592;2022-11-23T05:25:44;5.07;;;3.93;;
9034;SDS011;4552;43.422;24.592;2022-11-23T05:28:13;5.53;;;4.25;;
9034;SDS011;4552;43.422;24.592;2022-11-23T05:30:41;5.30;;;4.30;;
9034;SDS011;4552;43.422;24.592;2022-11-23T05:33:14;5.87;;;4.40;;
9034;SDS011;4552;43.422;24.592;2022-11-23T05:35:41;6.27;;;4.27;;
9034;SDS011;4552;43.422;24.592;2022-11-23T05:38:08;5.90;;;4.03;;
9034;SDS011;4552;43.422;24.592;2022-11-23T05:40:37;6.87;;;3.97;;
9034;SDS011;4552;43.422;24.592;2022-11-23T05:43:04;5.93;;;4.30;;
9034;SDS011;4552;43.422;24.592;2022-11-23T05:45:31;6.17;;;4.00;;
9034;SDS011;4552;43.422;24.592;2022-11-23T05:47:58;6.07;;;4.50;;
9034;SDS011;4552;43.422;24.592;2022-11-23T05:50:27;6.97;;;4.87;;
9034;SDS011;4552;43.422;24.592;2022-11-23T05:52:54;6.30;;;4.63;;
9034;SDS011;4552;43.422;24.592;2022-11-23T05:55:22;6.60;;;4.90;;
9034;SDS011;4552;43.422;24.592;2022-11-23T05:57:50;7.27;;;5.30;;
9034;SDS011;4552;43.422;24.592;2022-11-23T06:00:18;7.57;;;5.17;;
9034;SDS011;4552;43.422;24.592;2022-11-23T06:02:46;7.03;;;4.43;;
9034;SDS011;4552;43.422;24.592;2022-11-23T06:05:13;8.77;;;4.97;;
9034;SDS011;4552;43.422;24.592;2022-11-23T06:07:42;9.43;;;4.53;;
9034;SDS011;4552;43.422;24.592;2022-11-23T06:10:09;7.53;;;4.77;;
9034;SDS011;4552;43.422;24.592;2022-11-23T06:12:36;7.57;;;4.90;;
9034;SDS011;4552;43.422;24.592;2022-11-23T06:15:04;8.30;;;4.80;;
9034;SDS011;4552;43.422;24.592;2022-11-23T06:17:32;8.20;;;5.90;;
9034;SDS011;4552;43.422;24.592;2022-11-23T06:19:59;8.80;;;5.27;;
9034;SDS011;4552;43.422;24.592;2022-11-23T06:22:26;7.07;;;4.60;;
9034;SDS011;4552;43.422;24.592;2022-11-23T06:24:54;8.77;;;5.47;;
9034;SDS011;4552;43.422;24.592;2022-11-23T06:27:21;9.83;;;4.83;;
9034;SDS011;4552;43.422;24.592;2022-11-23T06:29:48;7.90;;;4.87;;
9034;SDS011;4552;43.422;24.592;2022-11-23T06:32:15;8.10;;;5.20;;
9034;SDS011;4552;43.422;24.592;2022-11-23T06:34:42;6.13;;;4.70;;
9034;SDS011;4552;43.422;24.592;2022-11-23T06:37:10;8.67;;;5.33;;
9034;SDS011;4552;43.422;24.592;2022-11-23T06:39:38;5.83;;;4.87;;
9034;SDS011;4552;43.422;24.592;2022-11-23T06:42:06;9.00;;;5.10;;
9034;SDS011;4552;43.422;24.592;2022-11-23T06:44:34;7.63;;;5.23;;
9034;SDS011;4552;43.422;24.592;2022-11-23T06:47:02;7.80;;;5.23;;
9034;SDS011;4552;43.422;24.592;2022-11-23T06:49:30;6.10;;;4.90;;
9034;SDS011;4552;43.422;24.592;2022-11-23T06:51:57;6.63;;;4.70;;
9034;SDS011;4552;43.422;24.592;2022-11-23T06:54:24;8.47;;;5.23;;
9034;SDS011;4552;43.422;24.592;2022-11-23T06:56:51;6.30;;;4.77;;
9034;SDS011;4552;43.422;24.592;2022-11-23T06:59:20;9.40;;;5.83;;
9034;SDS011;4552;43.422;24.592;2022-11-23T07:01:47;9.17;;;5.37;;
9034;SDS011;4552;43.422;24.592;2022-11-23T07:04:15;7.17;;;5.33;;
9034;SDS011;4552;43.422;24.592;2022-11-23T07:06:42;6.80;;;5.00;;
9034;SDS011;4552;43.422;24.592;2022-11-23T07:09:11;7.60;;;4.80;;
9034;SDS011;4552;43.422;24.592;2022-11-23T07:11:38;10.90;;;5.30;;
9034;SDS011;4552;43.422;24.592;2022-11-23T07:14:05;7.17;;;4.43;;
9034;SDS011;4552;43.422;24.592;2022-11-23T07:16:34;8.60;;;5.00;;
9034;SDS011;4552;43.422;24.592;2022-11-23T07:19:01;8.43;;;5.43;;
9034;SDS011;4552;43.422;24.592;2022-11-23T07:21:28;10.53;;;6.43;;
9034;SDS011;4552;43.422;24.592;2022-11-23T07:23:56;13.00;;;6.60;;
9034;SDS011;4552;43.422;24.592;2022-11-23T07:26:24;12.43;;;6.53;;
9034;SDS011;4552;43.422;24.592;2022-11-23T07:28:50;9.47;;;6.63;;
9034;SDS011;4552;43.422;24.592;2022-11-23T07:31:18;13.40;;;6.53;;
9034;SDS011;4552;43.422;24.592;2022-11-23T07:33:46;12.37;;;7.60;;
9034;SDS011;4552;43.422;24.592;2022-11-23T07:36:14;11.13;;;6.70;;
9034;SDS011;4552;43.422;24.592;2022-11-23T07:38:42;12.00;;;6.27;;
9034;SDS011;4552;43.422;24.592;2022-11-23T07:41:09;11.63;;;7.10;;
9034;SDS011;4552;43.422;24.592;2022-11-23T07:43:37;10.30;;;6.27;;
9034;SDS011;4552;43.422;24.592;2022-11-23T07:46:04;12.60;;;6.97;;
9034;SDS011;4552;43.422;24.592;2022-11-23T07:48:31;14.87;;;6.67;;
9034;SDS011;4552;43.422;24.592;2022-11-23T07:51:00;11.27;;;7.27;;
9034;SDS011;4552;43.422;24.592;2022-11-23T07:53:27;9.40;;;6.50;;
9034;SDS011;4552;43.422;24.592;2022-11-23T07:55:55;9.97;;;6.70;;
9034;SDS011;4552;43.422;24.592;2022-11-23T07:58:23;13.80;;;7.40;;
9034;SDS011;4552;43.422;24.592;2022-11-23T08:00:53;13.80;;;7.60;;
9034;SDS011;4552;43.422;24.592;2022-11-23T08:03:20;10.83;;;6.83;;
9034;SDS011;4552;43.422;24.592;2022-11-23T08:05:47;8.90;;;6.10;;
9034;SDS011;4552;43.422;24.592;2022-11-23T08:08:16;17.63;;;7.00;;
9034;SDS011;4552;43.422;24.592;2022-11-23T08:10:42;12.93;;;6.67;;
9034;SDS011;4552;43.422;24.592;2022-11-23T08:13:10;10.30;;;6.93;;
9034;SDS011;4552;43.422;24.592;2022-11-23T08:15:38;10.20;;;6.90;;
9034;SDS011;4552;43.422;24.592;2022-11-23T08:18:06;16.23;;;7.07;;
9034;SDS011;4552;43.422;24.592;2022-11-23T08:20:35;11.53;;;7.07;;
9034;SDS011;4552;43.422;24.592;2022-11-23T08:23:03;13.37;;;7.03;;
9034;SDS011;4552;43.422;24.592;2022-11-23T08:25:33;10.53;;;6.50;;
9034;SDS011;4552;43.422;24.592;2022-11-23T08:28:01;10.17;;;6.77;;
9034;SDS011;4552;43.422;24.592;2022-11-23T08:30:30;13.60;;;7.10;;
9034;SDS011;4552;43.422;24.592;2022-11-23T08:32:59;16.23;;;8.40;;
9034;SDS011;4552;43.422;24.592;2022-11-23T08:35:28;17.50;;;8.80;;
9034;SDS011;4552;43.422;24.592;2022-11-23T08:37:56;17.90;;;9.43;;
9034;SDS011;4552;43.422;24.592;2022-11-23T08:40:23;16.83;;;9.00;;
9034;SDS011;4552;43.422;24.592;2022-11-23T08:42:56;16.50;;;8.60;;
9034;SDS011;4552;43.422;24.592;2022-11-23T08:45:23;16.20;;;8.03;;
9034;SDS011;4552;43.422;24.592;2022-11-23T08:47:51;13.67;;;8.47;;
9034;SDS011;4552;43.422;24.592;2022-11-23T08:50:18;14.57;;;7.77;;
9034;SDS011;4552;43.422;24.592;2022-11-23T08:52:45;12.57;;;7.60;;
9034;SDS011;4552;43.422;24.592;2022-11-23T08:55:13;15.97;;;8.17;;
9034;SDS011;4552;43.422;24.592;2022-11-23T08:57:40;18.07;;;8.87;;
9034;SDS011;4552;43.422;24.592;2022-11-23T09:00:10;15.07;;;8.57;;
9034;SDS011;4552;43.422;24.592;2022-11-23T09:02:38;14.53;;;8.97;;
9034;SDS011;4552;43.422;24.592;2022-11-23T09:05:05;14.40;;;7.87;;
9034;SDS011;4552;43.422;24.592;2022-11-23T09:07:33;15.37;;;7.97;;
9034;SDS011;4552;43.422;24.592;2022-11-23T09:10:00;13.70;;;7.40;;
9034;SDS011;4552;43.422;24.592;2022-11-23T09:12:27;14.90;;;9.50;;
9034;SDS011;4552;43.422;24.592;2022-11-23T09:14:54;17.40;;;10.00;;
9034;SDS011;4552;43.422;24.592;2022-11-23T09:17:23;13.87;;;8.60;;
9034;SDS011;4552;43.422;24.592;2022-11-23T09:19:50;14.37;;;8.97;;
9034;SDS011;4552;43.422;24.592;2022-11-23T09:22:18;15.30;;;8.07;;
9034;SDS011;4552;43.422;24.592;2022-11-23T09:24:45;14.20;;;8.73;;
9034;SDS011;4552;43.422;24.592;2022-11-23T09:27:12;12.23;;;7.87;;
9034;SDS011;4552;43.422;24.592;2022-11-23T09:29:39;18.83;;;8.77;;
9034;SDS011;4552;43.422;24.592;2022-11-23T09:32:07;14.57;;;8.30;;
9034;SDS011;4552;43.422;24.592;2022-11-23T09:34:36;15.47;;;9.20;;
9034;SDS011;4552;43.422;24.592;2022-11-23T09:37:03;16.00;;;9.37;;
9034;SDS011;4552;43.422;24.592;2022-11-23T09:39:31;15.17;;;9.80;;
9034;SDS011;4552;43.422;24.592;2022-11-23T09:42:14;15.47;;;8.90;;
9034;SDS011;4552;43.422;24.592;2022-11-23T09:44:58;12.90;;;8.13;;
9034;SDS011;4552;43.422;24.592;2022-11-23T09:47:43;15.40;;;9.33;;
9034;SDS011;4552;43.422;24.592;2022-11-23T09:53:13;16.63;;;9.27;;
9034;SDS011;4552;43.422;24.592;2022-11-23T09:55:45;16.50;;;9.27;;
9034;SDS011;4552;43.422;24.592;2022-11-23T09:58:15;16.40;;;9.37;;
9034;SDS011;4552;43.422;24.592;2022-11-23T10:00:45;17.50;;;9.17;;
9034;SDS011;4552;43.422;24.592;2022-11-23T10:03:16;14.40;;;9.50;;
9034;SDS011;4552;43.422;24.592;2022-11-23T10:05:49;17.03;;;8.20;;
9034;SDS011;4552;43.422;24.592;2022-11-23T10:08:29;17.87;;;9.40;;
9034;SDS011;4552;43.422;24.592;2022-11-23T10:11:05;17.37;;;8.93;;
9034;SDS011;4552;43.422;24.592;2022-11-23T10:13:48;19.23;;;9.30;;
9034;SDS011;4552;43.422;24.592;2022-11-23T10:16:31;15.10;;;8.70;;
9034;SDS011;4552;43.422;24.592;2022-11-23T10:19:09;15.40;;;8.73;;
9034;SDS011;4552;43.422;24.592;2022-11-23T10:21:49;14.13;;;9.50;;
9034;SDS011;4552;43.422;24.592;2022-11-23T10:24:26;17.00;;;9.13;;
9034;SDS011;4552;43.422;24.592;2022-11-23T10:26:59;18.27;;;9.23;;
9034;SDS011;4552;43.422;24.592;2022-11-23T10:29:29;13.47;;;9.00;;
9034;SDS011;4552;43.422;24.592;2022-11-23T10:31:58;17.37;;;9.63;;
9034;SDS011;4552;43.422;24.592;2022-11-23T10:34:33;16.30;;;9.57;;
9034;SDS011;4552;43.422;24.592;2022-11-23T10:37:14;20.60;;;9.90;;
9034;SDS011;4552;43.422;24.592;2022-11-23T10:39:43;20.17;;;9.60;;
9034;SDS011;4552;43.422;24.592;2022-11-23T10:42:13;17.70;;;9.73;;
9034;SDS011;4552;43.422;24.592;2022-11-23T10:44:45;15.93;;;9.40;;
9034;SDS011;4552;43.422;24.592;2022-11-23T10:47:37;13.17;;;8.90;;
9034;SDS011;4552;43.422;24.592;2022-11-23T10:50:22;15.50;;;8.60;;
9034;SDS011;4552;43.422;24.592;2022-11-23T10:52:56;16.57;;;9.17;;
9034;SDS011;4552;43.422;24.592;2022-11-23T10:55:28;15.20;;;8.47;;
9034;SDS011;4552;43.422;24.592;2022-11-23T10:57:57;13.57;;;9.33;;
9034;SDS011;4552;43.422;24.592;2022-11-23T11:00:27;17.77;;;9.50;;
9034;SDS011;4552;43.422;24.592;2022-11-23T11:02:55;13.47;;;8.60;;
9034;SDS011;4552;43.422;24.592;2022-11-23T11:05:28;15.10;;;8.10;;
9034;SDS011;4552;43.422;24.592;2022-11-23T11:08:00;15.47;;;9.23;;
9034;SDS011;4552;43.422;24.592;2022-11-23T11:10:32;16.93;;;9.73;;
9034;SDS011;4552;43.422;24.592;2022-11-23T11:13:23;15.17;;;9.40;;
9034;SDS011;4552;43.422;24.592;2022-11-23T11:15:56;15.53;;;8.93;;
9034;SDS011;4552;43.422;24.592;2022-11-23T11:18:27;13.50;;;8.70;;
9034;SDS011;4552;43.422;24.592;2022-11-23T11:20:58;15.97;;;8.80;;
9034;SDS011;4552;43.422;24.592;2022-11-23T11:23:31;17.60;;;8.37;;
9034;SDS011;4552;43.422;24.592;2022-11-23T11:26:01;15.23;;;9.33;;
9034;SDS011;4552;43.422;24.592;2022-11-23T11:28:46;21.03;;;10.40;;
9034;SDS011;4552;43.422;24.592;2022-11-23T11:34:16;16.60;;;9.37;;
9034;SDS011;4552;43.422;24.592;2022-11-23T11:36:53;15.60;;;9.30;;
9034;SDS011;4552;43.422;24.592;2022-11-23T11:39:32;19.10;;;9.77;;
9034;SDS011;4552;43.422;24.592;2022-11-23T11:42:05;18.07;;;10.37;;
9034;SDS011;4552;43.422;24.592;2022-11-23T11:44:39;19.33;;;9.27;;
9034;SDS011;4552;43.422;24.592;2022-11-23T11:47:08;15.67;;;9.60;;
9034;SDS011;4552;43.422;24.592;2022-11-23T11:49:47;17.27;;;10.50;;
9034;SDS011;4552;43.422;24.592;2022-11-23T11:52:17;15.50;;;9.50;;
9034;SDS011;4552;43.422;24.592;2022-11-23T11:54:50;14.60;;;9.60;;
9034;SDS011;4552;43.422;24.592;2022-11-23T11:57:24;11.80;;;8.07;;
9034;SDS011;4552;43.422;24.592;2022-11-23T11:59:55;15.50;;;9.57;;
9034;SDS011;4552;43.422;24.592;2022-11-23T12:02:28;15.30;;;9.50;;
9034;SDS011;4552;43.422;24.592;2022-11-23T12:05:04;14.60;;;10.00;;
9034;SDS011;4552;43.422;24.592;2022-11-23T12:07:38;16.30;;;9.63;;
9034;SDS011;4552;43.422;24.592;2022-11-23T12:10:16;13.67;;;9.33;;
9034;SDS011;4552;43.422;24.592;2022-11-23T12:12:47;19.00;;;9.47;;
9034;SDS011;4552;43.422;24.592;2022-11-23T12:15:17;15.07;;;9.23;;
9034;SDS011;4552;43.422;24.592;2022-11-23T12:17:56;14.83;;;9.90;;
9034;SDS011;4552;43.422;24.592;2022-11-23T12:20:42;15.27;;;8.63;;
9034;SDS011;4552;43.422;24.592;2022-11-23T12:23:19;19.43;;;10.07;;
9034;SDS011;4552;43.422;24.592;2022-11-23T12:26:05;16.97;;;9.53;;
9034;SDS011;4552;43.422;24.592;2022-11-23T12:28:46;14.80;;;9.33;;
9034;SDS011;4552;43.422;24.592;2022-11-23T12:31:26;18.57;;;10.60;;
9034;SDS011;4552;43.422;24.592;2022-11-23T12:34:10;19.50;;;10.67;;
9034;SDS011;4552;43.422;24.592;2022-11-23T12:37:01;17.77;;;9.77;;
9034;SDS011;4552;43.422;24.592;2022-11-23T12:39:44;16.40;;;9.80;;
9034;SDS011;4552;43.422;24.592;2022-11-23T12:42:32;17.57;;;9.70;;
9034;SDS011;4552;43.422;24.592;2022-11-23T12:45:18;17.30;;;10.13;;
9034;SDS011;4552;43.422;24.592;2022-11-23T12:47:57;20.02;;;12.38;;
9034;SDS011;4552;43.422;24.592;2022-11-23T12:50:35;17.20;;;11.00;;
9034;SDS011;4552;43.422;24.592;2022-11-23T12:53:17;15.87;;;9.50;;
9034;SDS011;4552;43.422;24.592;2022-11-23T12:56:00;16.97;;;9.87;;
9034;SDS011;4552;43.422;24.592;2022-11-23T12:58:36;14.63;;;8.80;;
9034;SDS011;4552;43.422;24.592;2022-11-23T13:01:09;17.53;;;9.93;;
9034;SDS011;4552;43.422;24.592;2022-11-23T13:03:59;14.60;;;9.20;;
9034;SDS011;4552;43.422;24.592;2022-11-23T13:10:14;13.83;;;9.07;;
9034;SDS011;4552;43.422;24.592;2022-11-23T13:13:05;16.23;;;9.40;;
9034;SDS011;4552;43.422;24.592;2022-11-23T13:18:37;16.53;;;9.70;;
9034;SDS011;4552;43.422;24.592;2022-11-23T13:21:21;18.63;;;9.87;;
9034;SDS011;4552;43.422;24.592;2022-11-23T13:23:55;15.33;;;9.20;;
9034;SDS011;4552;43.422;24.592;2022-11-23T13:26:25;20.17;;;10.60;;
9034;SDS011;4552;43.422;24.592;2022-11-23T13:28:54;20.47;;;12.53;;
9034;SDS011;4552;43.422;24.592;2022-11-23T13:31:25;19.33;;;10.07;;
9034;SDS011;4552;43.422;24.592;2022-11-23T13:33:56;17.93;;;9.93;;
9034;SDS011;4552;43.422;24.592;2022-11-23T13:36:38;16.40;;;9.87;;
9034;SDS011;4552;43.422;24.592;2022-11-23T13:42:21;16.70;;;9.83;;
9034;SDS011;4552;43.422;24.592;2022-11-23T13:48:09;15.57;;;10.50;;
9034;SDS011;4552;43.422;24.592;2022-11-23T13:50:54;15.03;;;9.17;;
9034;SDS011;4552;43.422;24.592;2022-11-23T13:53:24;16.52;;;9.63;;
9034;SDS011;4552;43.422;24.592;2022-11-23T13:55:55;16.60;;;10.00;;
9034;SDS011;4552;43.422;24.592;2022-11-23T13:58:35;19.67;;;10.47;;
9034;SDS011;4552;43.422;24.592;2022-11-23T14:01:05;16.37;;;10.50;;
9034;SDS011;4552;43.422;24.592;2022-11-23T14:03:53;17.00;;;9.50;;
9034;SDS011;4552;43.422;24.592;2022-11-23T14:06:43;15.20;;;9.23;;
9034;SDS011;4552;43.422;24.592;2022-11-23T14:09:20;16.27;;;9.53;;
9034;SDS011;4552;43.422;24.592;2022-11-23T14:12:02;14.50;;;8.60;;
9034;SDS011;4552;43.422;24.592;2022-11-23T14:14:56;15.00;;;9.60;;
9034;SDS011;4552;43.422;24.592;2022-11-23T14:20:38;15.00;;;9.10;;
9034;SDS011;4552;43.422;24.592;2022-11-23T14:23:25;14.43;;;9.77;;
9034;SDS011;4552;43.422;24.592;2022-11-23T14:26:20;13.53;;;8.37;;
9034;SDS011;4552;43.422;24.592;2022-11-23T14:29:06;13.37;;;8.30;;
9034;SDS011;4552;43.422;24.592;2022-11-23T14:31:48;14.90;;;9.57;;
9034;SDS011;4552;43.422;24.592;2022-11-23T14:34:27;13.57;;;9.27;;
9034;SDS011;4552;43.422;24.592;2022-11-23T14:37:10;17.13;;;9.53;;
9034;SDS011;4552;43.422;24.592;2022-11-23T14:42:45;19.43;;;10.50;;
9034;SDS011;4552;43.422;24.592;2022-11-23T14:45:19;14.63;;;9.57;;
9034;SDS011;4552;43.422;24.592;2022-11-23T14:47:48;15.20;;;10.00;;
9034;SDS011;4552;43.422;24.592;2022-11-23T14:50:21;16.07;;;9.40;;
9034;SDS011;4552;43.422;24.592;2022-11-23T14:52:51;17.17;;;9.13;;
9034;SDS011;4552;43.422;24.592;2022-11-23T14:55:21;15.23;;;9.77;;
9034;SDS011;4552;43.422;24.592;2022-11-23T14:57:51;18.50;;;9.43;;
9034;SDS011;4552;43.422;24.592;2022-11-23T15:00:24;18.10;;;9.80;;
9034;SDS011;4552;43.422;24.592;2022-11-23T15:02:55;16.30;;;9.77;;
9034;SDS011;4552;43.422;24.592;2022-11-23T15:05:27;17.33;;;9.83;;
9034;SDS011;4552;43.422;24.592;2022-11-23T15:07:59;14.97;;;9.63;;
9034;SDS011;4552;43.422;24.592;2022-11-23T15:10:33;17.73;;;9.83;;
9034;SDS011;4552;43.422;24.592;2022-11-23T15:13:18;19.10;;;10.20;;
9034;SDS011;4552;43.422;24.592;2022-11-23T15:15:48;17.50;;;9.37;;
9034;SDS011;4552;43.422;24.592;2022-11-23T15:18:28;16.97;;;10.50;;
9034;SDS011;4552;43.422;24.592;2022-11-23T15:20:57;17.70;;;10.20;;
9034;SDS011;4552;43.422;24.592;2022-11-23T15:23:30;17.97;;;10.67;;
9034;SDS011;4552;43.422;24.592;2022-11-23T15:26:02;18.80;;;9.70;;
9034;SDS011;4552;43.422;24.592;2022-11-23T15:28:31;18.43;;;10.83;;
9034;SDS011;4552;43.422;24.592;2022-11-23T15:31:15;21.13;;;11.03;;
9034;SDS011;4552;43.422;24.592;2022-11-23T15:33:44;15.97;;;10.13;;
9034;SDS011;4552;43.422;24.592;2022-11-23T15:36:15;23.40;;;10.83;;
9034;SDS011;4552;43.422;24.592;2022-11-23T15:38:49;18.30;;;10.40;;
9034;SDS011;4552;43.422;24.592;2022-11-23T15:41:17;17.13;;;10.07;;